createdAt,value
2024-05-09T00:02:11.626Z,100.00
2024-05-09T00:04:43.243Z,99.61
2024-05-09T00:07:16.149Z,97.67
2024-05-09T00:09:48.164Z,97.74
2024-05-09T00:12:18.138Z,97.32
2024-05-09T00:14:48.695Z,98.27
2024-05-09T00:17:18.686Z,97.98
2024-05-09T00:19:49.406Z,97.33
2024-05-09T00:22:21.967Z,96.44
2024-05-09T00:24:52.367Z,95.84
2024-05-09T00:27:22.932Z,97.53
2024-05-09T00:29:53.372Z,97.44
2024-05-09T00:32:23.464Z,97.98
2024-05-09T00:34:53.993Z,97.38
2024-05-09T00:37:26.664Z,96.50
2024-05-09T00:39:57.006Z,97.28
2024-05-09T00:42:26.957Z,98.95
2024-05-09T00:44:57.910Z,100.00
2024-05-09T00:47:28.069Z,98.75
2024-05-09T00:49:58.787Z,100.00
2024-05-09T00:52:31.841Z,100.00
2024-05-09T00:55:03.223Z,100.00
2024-05-09T00:57:33.197Z,100.00
2024-05-09T01:00:05.995Z,100.00
2024-05-09T01:02:42.079Z,100.00
2024-05-09T01:05:13.052Z,100.00
2024-05-09T01:07:46.422Z,100.00
2024-05-09T01:10:24.076Z,100.00
2024-05-09T01:13:01.649Z,100.00
2024-05-09T01:15:32.238Z,100.00
2024-05-09T01:18:04.267Z,100.00
2024-05-09T01:20:41.587Z,100.00
2024-05-09T01:23:17.128Z,100.00
2024-05-09T01:25:48.159Z,99.89
2024-05-09T01:28:18.330Z,99.76
2024-05-09T01:30:49.033Z,98.30
2024-05-09T01:33:19.103Z,98.46
2024-05-09T01:35:49.514Z,99.46
2024-05-09T01:38:22.274Z,99.69
2024-05-09T01:40:53.149Z,100.00
2024-05-09T01:43:23.087Z,99.44
2024-05-09T01:45:53.691Z,98.61
2024-05-09T01:48:23.870Z,98.16
2024-05-09T01:50:55.073Z,97.89
2024-05-09T01:53:27.811Z,98.11
2024-05-09T01:55:58.685Z,97.07
2024-05-09T01:58:28.652Z,96.60
2024-05-09T02:00:59.065Z,96.27
2024-05-09T02:03:29.547Z,100.00
2024-05-09T02:06:00.218Z,100.00
2024-05-09T02:08:33.134Z,100.00
2024-05-09T02:11:04.225Z,100.00
2024-05-09T02:13:35.034Z,99.03
2024-05-09T02:16:06.561Z,98.66
2024-05-09T02:18:38.107Z,98.65
2024-05-09T02:21:08.939Z,98.40
2024-05-09T02:23:42.073Z,99.10
2024-05-09T02:26:12.484Z,99.07
2024-05-09T02:28:42.407Z,98.42
2024-05-09T02:31:34.210Z,98.16
2024-05-09T02:34:04.306Z,98.36
2024-05-09T02:36:35.015Z,97.38
2024-05-09T02:39:05.291Z,96.95
2024-05-09T02:41:36.591Z,96.78
2024-05-09T02:44:03.793Z,96.90
2024-05-09T02:46:35.555Z,96.91
2024-05-09T02:49:03.027Z,96.88
2024-05-09T02:51:33.492Z,97.36
2024-05-09T02:54:00.811Z,97.84
2024-05-09T02:56:34.364Z,97.86
2024-05-09T02:59:01.624Z,97.55
2024-05-09T03:01:34.306Z,97.93
2024-05-09T03:04:01.838Z,98.09
2024-05-09T03:06:32.278Z,98.53
2024-05-09T03:09:01.089Z,99.85
2024-05-09T03:11:34.556Z,100.00
2024-05-09T03:14:02.166Z,100.00
2024-05-09T03:16:32.579Z,100.00
2024-05-09T03:19:00.127Z,99.92
2024-05-09T03:21:30.568Z,99.98
2024-05-09T03:23:57.867Z,100.00
2024-05-09T03:26:28.403Z,100.00
2024-05-09T03:28:58.462Z,100.00
2024-05-09T03:31:28.820Z,100.00
2024-05-09T03:33:56.169Z,100.00
2024-05-09T03:36:26.684Z,100.00
2024-05-09T03:38:56.854Z,100.00
2024-05-09T03:41:24.639Z,100.00
2024-05-09T03:43:55.231Z,100.00
2024-05-09T03:46:28.789Z,100.00
2024-05-09T03:48:57.390Z,100.00
2024-05-09T03:51:27.883Z,100.00
2024-05-09T03:53:55.828Z,100.00
2024-05-09T03:56:26.715Z,100.00
2024-05-09T03:58:54.404Z,100.00
2024-05-09T04:01:25.375Z,100.00
2024-05-09T04:03:55.516Z,100.00
2024-05-09T04:06:27.797Z,100.00
2024-05-09T04:08:55.000Z,100.00
2024-05-09T04:11:25.862Z,100.00
2024-05-09T04:13:53.180Z,100.00
2024-05-09T04:16:24.698Z,100.00
2024-05-09T04:18:54.856Z,100.00
2024-05-09T04:21:25.726Z,100.00
2024-05-09T04:23:52.955Z,100.00
2024-05-09T04:26:23.391Z,100.00
2024-05-09T04:28:50.689Z,100.00
2024-05-09T04:31:21.448Z,100.00
2024-05-09T04:33:48.754Z,100.00
2024-05-09T04:36:22.142Z,98.17
2024-05-09T04:38:49.307Z,95.98
2024-05-09T04:41:22.923Z,95.30
2024-05-09T04:43:51.170Z,92.99
2024-05-09T04:46:22.013Z,91.28
2024-05-09T04:48:49.562Z,90.95
2024-05-09T04:51:32.719Z,89.45
2024-05-09T04:53:59.997Z,89.18
2024-05-09T04:56:32.379Z,88.61
2024-05-09T04:58:59.762Z,87.70
2024-05-09T05:01:31.298Z,86.91
2024-05-09T05:03:59.792Z,83.78
2024-05-09T05:06:34.033Z,81.44
2024-05-09T05:09:02.462Z,80.27
2024-05-09T05:11:33.372Z,79.57
2024-05-09T05:14:01.064Z,79.77
2024-05-09T05:16:36.750Z,79.55
2024-05-09T05:19:05.877Z,78.05
2024-05-09T05:21:40.638Z,79.02
2024-05-09T05:24:08.281Z,79.46
2024-05-09T05:26:40.425Z,78.87
2024-05-09T05:29:08.079Z,78.88
2024-05-09T05:31:38.604Z,80.29
2024-05-09T05:34:06.208Z,80.06
2024-05-09T05:36:36.590Z,80.82
2024-05-09T05:39:06.680Z,80.38
2024-05-09T05:41:37.477Z,79.33
2024-05-09T05:44:05.216Z,78.58
2024-05-09T05:46:35.936Z,77.45
2024-05-09T05:49:03.860Z,76.75
2024-05-09T05:51:37.658Z,76.52
2024-05-09T05:54:15.212Z,75.92
2024-05-09T05:56:47.316Z,75.45
2024-05-09T05:59:18.393Z,75.41
2024-05-09T06:01:50.048Z,74.85
2024-05-09T06:04:20.098Z,74.82
2024-05-09T06:06:52.541Z,73.86
2024-05-09T06:09:23.588Z,73.28
2024-05-09T06:11:55.488Z,69.13
2024-05-09T06:14:24.134Z,69.03
2024-05-09T06:16:58.674Z,62.95
2024-05-09T06:19:27.094Z,62.98
2024-05-09T06:21:59.144Z,58.54
2024-05-09T06:24:38.609Z,58.26
2024-05-09T06:27:24.971Z,59.30
2024-05-09T06:30:08.230Z,58.39
2024-05-09T06:32:50.238Z,53.58
2024-05-09T06:35:23.492Z,55.03
2024-05-09T06:37:53.907Z,55.18
2024-05-09T06:40:29.421Z,54.62
2024-05-09T06:43:05.959Z,54.62
2024-05-09T06:45:33.793Z,54.29
2024-05-09T06:48:04.346Z,53.95
2024-05-09T06:50:37.486Z,54.06
2024-05-09T06:53:12.305Z,54.06
2024-05-09T06:55:57.820Z,53.83
2024-05-09T06:58:28.720Z,52.22
2024-05-09T07:00:56.499Z,49.27
2024-05-09T07:03:27.952Z,50.86
2024-05-09T07:05:55.550Z,50.07
2024-05-09T07:08:26.304Z,50.40
2024-05-09T07:10:53.710Z,50.99
2024-05-09T07:13:27.465Z,50.05
2024-05-09T07:15:54.820Z,51.30
2024-05-09T07:18:25.592Z,50.85
2024-05-09T07:20:55.147Z,49.26
2024-05-09T07:23:25.710Z,48.72
2024-05-09T07:25:53.123Z,49.96
2024-05-09T07:28:26.526Z,49.71
2024-05-09T07:30:53.703Z,50.03
2024-05-09T07:33:25.394Z,49.73
2024-05-09T07:35:53.318Z,50.31
2024-05-09T07:38:24.461Z,49.43
2024-05-09T07:40:51.964Z,49.25
2024-05-09T07:43:23.022Z,49.57
2024-05-09T07:45:55.368Z,50.36
2024-05-09T07:50:01.352Z,47.89
2024-05-09T07:53:53.290Z,47.41
2024-05-09T07:56:26.286Z,48.45
2024-05-09T07:58:57.606Z,47.88
2024-05-09T08:05:01.853Z,47.38
2024-05-09T08:10:30.675Z,46.00
2024-05-09T08:13:23.632Z,44.64
2024-05-09T08:16:27.231Z,46.54
2024-05-09T08:19:03.027Z,46.88
2024-05-09T08:22:13.929Z,46.52
2024-05-09T08:25:11.906Z,47.46
2024-05-09T08:28:17.684Z,46.48
2024-05-09T08:38:28.283Z,48.46
2024-05-09T08:41:59.966Z,47.55
2024-05-09T08:56:18.547Z,48.69
2024-05-09T08:59:22.664Z,48.84
2024-05-09T09:02:21.592Z,48.85
2024-05-09T09:04:53.795Z,49.57
2024-05-09T09:07:55.343Z,50.70
2024-05-09T09:10:49.380Z,51.12
2024-05-09T09:16:21.356Z,51.05
2024-05-09T09:22:10.843Z,52.28
2024-05-09T09:24:45.192Z,50.76
2024-05-09T09:27:26.986Z,51.89
2024-05-09T09:30:27.301Z,52.51
2024-05-09T09:33:02.695Z,51.62
2024-05-09T09:35:52.268Z,52.40
2024-05-09T09:38:29.064Z,52.11
2024-05-09T09:41:10.264Z,53.66
2024-05-09T09:43:49.511Z,52.39
2024-05-09T09:46:36.352Z,54.03
2024-05-09T09:49:14.531Z,53.43
2024-05-09T09:52:02.055Z,54.48
2024-05-09T09:54:45.091Z,54.82
2024-05-09T09:57:19.846Z,53.92
2024-05-09T09:59:55.037Z,54.17
2024-05-09T10:02:29.891Z,54.29
2024-05-09T10:04:59.587Z,55.35
2024-05-09T10:07:31.636Z,53.66
2024-05-09T10:09:59.288Z,54.03
2024-05-09T10:12:31.158Z,54.20
2024-05-09T10:14:59.219Z,53.48
2024-05-09T10:17:39.358Z,53.40
2024-05-09T10:20:18.404Z,53.52
2024-05-09T10:25:56.005Z,52.91
2024-05-09T10:28:29.498Z,52.65
2024-05-09T10:31:05.984Z,52.37
2024-05-09T10:33:45.929Z,52.90
2024-05-09T10:36:14.323Z,53.06
2024-05-09T10:38:48.183Z,53.78
2024-05-09T10:41:18.093Z,52.29
2024-05-09T10:44:13.691Z,49.69
2024-05-09T10:46:59.006Z,51.12
2024-05-09T10:49:32.866Z,52.05
2024-05-09T10:52:04.381Z,51.76
2024-05-09T10:54:40.446Z,50.89
2024-05-09T10:57:08.788Z,50.14
2024-05-09T10:59:44.777Z,49.87
2024-05-09T11:02:16.277Z,50.98
2024-05-09T11:05:14.228Z,47.60
2024-05-09T11:07:51.233Z,49.20
2024-05-09T11:10:27.827Z,47.54
2024-05-09T11:13:04.267Z,48.89
2024-05-09T11:15:44.098Z,49.18
2024-05-09T11:18:24.286Z,48.86
2024-05-09T11:21:01.124Z,49.51
2024-05-09T11:23:30.917Z,48.97
2024-05-09T11:26:04.552Z,47.65
2024-05-09T11:28:34.101Z,48.58
2024-05-09T11:31:21.516Z,47.67
2024-05-09T11:33:58.278Z,47.62
2024-05-09T11:37:02.518Z,46.59
2024-05-09T11:39:53.302Z,46.89
2024-05-09T11:42:29.835Z,46.60
2024-05-09T11:44:57.140Z,46.22
2024-05-09T11:47:27.796Z,46.63
2024-05-09T11:49:57.825Z,46.53
2024-05-09T11:52:31.118Z,45.47
2024-05-09T11:54:59.445Z,46.76
2024-05-09T11:57:30.425Z,45.09
2024-05-09T11:59:57.845Z,46.49
2024-05-09T12:02:28.668Z,47.55
2024-05-09T12:04:56.016Z,46.01
2024-05-09T12:07:26.906Z,47.67
2024-05-09T12:09:57.313Z,47.08
2024-05-09T12:12:28.616Z,47.45
2024-05-09T12:14:56.019Z,47.12
2024-05-09T12:17:26.632Z,46.33
2024-05-09T12:19:54.212Z,45.93
2024-05-09T12:22:27.172Z,45.54
2024-05-09T12:24:57.151Z,45.14
2024-05-09T12:27:27.556Z,42.15
2024-05-09T12:29:55.144Z,44.71
2024-05-09T12:36:07.526Z,45.02
2024-05-09T12:38:37.703Z,44.71
2024-05-09T12:44:04.233Z,43.89
2024-05-09T12:46:37.442Z,45.10
2024-05-09T12:49:06.071Z,45.74
2024-05-09T12:51:47.755Z,45.60
2024-05-09T12:54:18.049Z,45.91
2024-05-09T12:59:37.466Z,45.08
2024-05-09T13:02:21.504Z,44.58
2024-05-09T13:07:46.345Z,45.51
2024-05-09T13:10:31.264Z,44.05
2024-05-09T13:13:06.724Z,45.54
2024-05-09T13:15:41.607Z,46.03
2024-05-09T13:18:10.678Z,47.36
2024-05-09T13:20:42.102Z,47.35
2024-05-09T13:23:10.292Z,47.80
2024-05-09T13:25:44.166Z,47.36
2024-05-09T13:28:14.755Z,45.65
2024-05-09T13:30:45.561Z,45.70
2024-05-09T13:33:14.475Z,45.06
2024-05-09T13:35:50.424Z,44.47
2024-05-09T13:38:22.913Z,45.33
2024-05-09T13:40:58.724Z,45.29
2024-05-09T13:43:28.771Z,45.77
2024-05-09T13:46:02.983Z,44.05
2024-05-09T13:48:32.649Z,45.53
2024-05-09T13:51:08.174Z,46.09
2024-05-09T13:53:35.699Z,45.39
2024-05-09T13:56:09.427Z,45.30
2024-05-09T13:58:42.891Z,46.83
2024-05-09T14:01:15.427Z,47.33
2024-05-09T14:03:43.453Z,46.76
2024-05-09T14:06:16.557Z,48.11
2024-05-09T14:08:46.121Z,48.28
2024-05-09T14:11:19.688Z,48.76
2024-05-09T14:13:55.400Z,50.49
2024-05-09T14:16:30.759Z,48.27
2024-05-09T14:19:00.402Z,48.81
2024-05-09T14:21:45.479Z,49.16
2024-05-09T14:24:14.711Z,49.81
2024-05-09T14:26:47.709Z,50.48
2024-05-09T14:29:27.813Z,50.76
2024-05-09T14:32:03.815Z,50.63
2024-05-09T14:34:38.980Z,51.70
2024-05-09T14:37:16.578Z,51.11
2024-05-09T14:39:48.198Z,51.44
2024-05-09T14:42:21.489Z,52.21
2024-05-09T14:44:52.759Z,52.59
2024-05-09T14:47:29.117Z,52.59
2024-05-09T14:49:58.601Z,53.36
2024-05-09T14:52:31.171Z,53.23
2024-05-09T14:55:01.412Z,52.19
2024-05-09T14:57:35.774Z,53.26
2024-05-09T15:00:17.347Z,53.87
2024-05-09T15:08:44.035Z,54.56
2024-05-09T15:11:52.548Z,54.31
2024-05-09T15:14:24.707Z,55.46
2024-05-09T15:19:58.448Z,56.20
2024-05-09T15:22:28.982Z,55.61
2024-05-09T15:25:10.802Z,56.80
2024-05-09T15:27:42.513Z,55.69
2024-05-09T15:30:18.138Z,55.95
2024-05-09T15:32:52.240Z,55.82
2024-05-09T15:35:23.748Z,56.54
2024-05-09T15:37:51.459Z,56.50
2024-05-09T15:40:31.728Z,57.04
2024-05-09T15:43:06.898Z,57.18
2024-05-09T15:45:39.802Z,58.10
2024-05-09T15:48:12.489Z,58.50
2024-05-09T15:50:44.479Z,58.35
2024-05-09T15:53:16.704Z,58.45
2024-05-09T15:55:47.415Z,60.62
2024-05-09T15:58:15.487Z,60.22
2024-05-09T16:00:53.488Z,60.91
2024-05-09T16:03:37.358Z,61.20
2024-05-09T16:06:11.705Z,61.58
2024-05-09T16:08:47.359Z,61.75
2024-05-09T16:11:20.536Z,61.26
2024-05-09T16:13:52.433Z,61.43
2024-05-09T16:16:23.734Z,61.77
2024-05-09T16:18:51.817Z,61.40
2024-05-09T16:21:24.567Z,59.71
2024-05-09T16:23:52.729Z,59.18
2024-05-09T16:26:22.876Z,57.40
2024-05-09T16:28:51.816Z,54.99
2024-05-09T16:31:30.807Z,52.32
2024-05-09T16:34:01.212Z,52.48
2024-05-09T16:36:34.412Z,56.44
2024-05-09T16:39:02.250Z,60.21
2024-05-09T16:41:32.356Z,62.69
2024-05-09T16:44:02.429Z,62.81
2024-05-09T16:46:32.506Z,64.15
2024-05-09T16:49:00.652Z,64.99
2024-05-09T16:51:33.893Z,65.88
2024-05-09T16:54:01.749Z,67.14
2024-05-09T16:56:31.882Z,66.31
2024-05-09T16:59:00.086Z,66.90
2024-05-09T17:01:31.362Z,66.64
2024-05-09T17:03:59.759Z,67.39
2024-05-09T17:06:30.423Z,68.55
2024-05-09T17:09:08.432Z,68.38
2024-05-09T17:11:44.466Z,68.31
2024-05-09T17:14:12.146Z,67.70
2024-05-09T17:16:42.123Z,68.08
2024-05-09T17:19:10.259Z,67.98
2024-05-09T17:21:41.131Z,67.00
2024-05-09T17:24:11.613Z,65.79
2024-05-09T17:26:42.278Z,66.46
2024-05-09T17:29:12.485Z,66.85
2024-05-09T17:31:43.028Z,66.60
2024-05-09T17:34:11.240Z,68.03
2024-05-09T17:36:41.610Z,68.57
2024-05-09T17:39:12.300Z,69.54
2024-05-09T17:41:42.281Z,70.85
2024-05-09T17:44:10.263Z,70.89
2024-05-09T17:46:40.255Z,71.97
2024-05-09T17:49:08.038Z,72.03
2024-05-09T17:51:38.702Z,73.67
2024-05-09T17:54:07.147Z,72.82
2024-05-09T17:56:40.943Z,72.19
2024-05-09T17:59:11.277Z,72.30
2024-05-09T18:01:42.383Z,72.67
2024-05-09T18:04:10.920Z,72.98
2024-05-09T18:06:44.134Z,72.53
2024-05-09T18:09:11.915Z,73.68
2024-05-09T18:11:44.976Z,73.90
2024-05-09T18:14:12.723Z,73.90
2024-05-09T18:16:42.808Z,74.47
2024-05-09T18:19:13.891Z,75.35
2024-05-09T18:21:43.972Z,76.17
2024-05-09T18:24:12.997Z,76.90
2024-05-09T18:26:45.717Z,78.59
2024-05-09T18:29:13.407Z,78.90
2024-05-09T18:31:43.621Z,79.30
2024-05-09T18:34:13.461Z,80.15
2024-05-09T18:36:44.202Z,81.58
2024-05-09T18:39:11.789Z,82.67
2024-05-09T18:41:41.664Z,84.27
2024-05-09T18:44:12.151Z,83.76
2024-05-09T18:46:42.895Z,84.20
2024-05-09T18:49:10.751Z,84.56
2024-05-09T18:51:41.120Z,84.10
2024-05-09T18:54:09.001Z,86.09
2024-05-09T18:56:40.163Z,85.67
2024-05-09T18:59:09.010Z,88.61
2024-05-09T19:01:42.446Z,88.80
2024-05-09T19:04:10.879Z,87.30
2024-05-09T19:06:42.823Z,87.96
2024-05-09T19:09:13.732Z,85.09
2024-05-09T19:11:44.158Z,85.77
2024-05-09T19:14:13.912Z,86.68
2024-05-09T19:16:48.187Z,86.24
2024-05-09T19:19:16.745Z,87.91
2024-05-09T19:21:46.775Z,90.26
2024-05-09T19:24:17.598Z,91.07
2024-05-09T19:26:50.931Z,92.27
2024-05-09T19:29:20.080Z,91.14
2024-05-09T19:31:59.516Z,100.00
2024-05-09T19:34:29.683Z,100.00
2024-05-09T19:37:01.718Z,100.00
2024-05-09T19:39:30.655Z,99.28
2024-05-09T19:42:00.959Z,98.30
2024-05-09T19:44:29.345Z,97.88
2024-05-09T19:47:02.471Z,99.98
2024-05-09T19:49:31.124Z,97.94
2024-05-09T19:52:05.605Z,96.23
2024-05-09T19:54:34.523Z,95.49
2024-05-09T19:57:04.848Z,94.54
2024-05-09T19:59:34.943Z,99.68
2024-05-09T20:02:08.237Z,98.61
2024-05-09T20:04:36.498Z,98.69
2024-05-09T20:07:07.425Z,100.00
2024-05-09T20:09:36.811Z,100.00
2024-05-09T20:12:07.242Z,100.00
2024-05-09T20:14:39.749Z,100.00
2024-05-09T20:17:13.459Z,100.00
2024-05-09T20:19:44.463Z,100.00
2024-05-09T20:22:15.233Z,100.00
2024-05-09T20:24:44.210Z,100.00
2024-05-09T20:27:14.822Z,100.00
2024-05-09T20:29:42.807Z,100.00
2024-05-09T20:32:15.874Z,100.00
2024-05-09T20:34:46.494Z,100.00
2024-05-09T20:37:16.823Z,100.00
2024-05-09T20:39:44.569Z,100.00
2024-05-09T20:42:15.413Z,100.00
2024-05-09T20:44:43.214Z,100.00
2024-05-09T20:47:15.963Z,100.00
2024-05-09T20:49:47.312Z,100.00
2024-05-09T20:52:20.916Z,100.00
2024-05-09T20:54:49.088Z,100.00
2024-05-09T20:57:19.061Z,100.00
2024-05-09T20:59:46.933Z,100.00
2024-05-09T21:02:20.616Z,100.00
2024-05-09T21:04:51.992Z,100.00
2024-05-09T21:07:22.259Z,100.00
2024-05-09T21:09:50.308Z,100.00
2024-05-09T21:12:20.930Z,100.00
2024-05-09T21:14:48.576Z,100.00
2024-05-09T21:17:22.680Z,100.00
2024-05-09T21:19:50.846Z,100.00
2024-05-09T21:22:21.162Z,100.00
2024-05-09T21:24:49.112Z,100.00
2024-05-09T21:27:19.730Z,100.00
2024-05-09T21:29:47.621Z,100.00
2024-05-09T21:32:17.947Z,100.00
2024-05-09T21:34:49.078Z,100.00
2024-05-09T21:37:19.285Z,100.00
2024-05-09T21:39:47.099Z,100.00
2024-05-09T21:42:17.074Z,100.00
2024-05-09T21:44:44.885Z,100.00
2024-05-09T21:47:15.141Z,100.00
2024-05-09T21:49:42.947Z,100.00
2024-05-09T21:52:27.427Z,100.00
2024-05-09T21:54:55.545Z,100.00
2024-05-09T21:57:25.594Z,100.00
2024-05-09T21:59:53.340Z,100.00
2024-05-09T22:02:23.375Z,100.00
2024-05-09T22:04:52.325Z,100.00
2024-05-09T22:07:25.182Z,100.00
2024-05-09T22:09:52.962Z,100.00
2024-05-09T22:12:22.879Z,100.00
2024-05-09T22:14:52.206Z,100.00
2024-05-09T22:17:22.309Z,100.00
2024-05-09T22:19:50.058Z,100.00
2024-05-09T22:22:28.217Z,100.00
2024-05-09T22:25:09.560Z,100.00
2024-05-09T22:27:39.943Z,100.00
2024-05-09T22:30:11.876Z,100.00
2024-05-09T22:32:48.916Z,100.00
2024-05-09T22:35:19.711Z,100.00
2024-05-09T22:37:52.699Z,100.00
2024-05-09T22:40:29.503Z,100.00
2024-05-09T22:43:08.961Z,100.00
2024-05-09T22:45:37.008Z,100.00
2024-05-09T22:48:07.611Z,100.00
2024-05-09T22:50:35.991Z,100.00
2024-05-09T22:53:08.765Z,100.00
2024-05-09T22:55:36.496Z,100.00
2024-05-09T22:58:06.914Z,100.00
2024-05-09T23:00:35.175Z,100.00
2024-05-09T23:03:05.501Z,100.00
2024-05-09T23:05:34.607Z,99.93
2024-05-09T23:08:05.356Z,97.91
2024-05-09T23:10:38.019Z,96.15
2024-05-09T23:13:08.814Z,95.05
2024-05-09T23:15:37.687Z,93.30
2024-05-09T23:18:08.686Z,90.76
2024-05-09T23:20:39.388Z,90.55
2024-05-09T23:23:11.857Z,88.79
2024-05-09T23:25:43.396Z,88.18
2024-05-09T23:28:13.765Z,87.32
2024-05-09T23:30:42.285Z,86.91
2024-05-09T23:33:13.766Z,86.46
2024-05-09T23:35:45.045Z,86.69
2024-05-09T23:38:16.158Z,86.09
2024-05-09T23:40:46.902Z,84.82
2024-05-09T23:43:17.130Z,84.37
2024-05-09T23:45:45.172Z,83.83
2024-05-09T23:48:16.716Z,83.29
2024-05-09T23:50:44.442Z,83.33
2024-05-09T23:53:14.569Z,82.68
2024-05-09T23:55:42.548Z,82.06
2024-05-09T23:58:17.231Z,80.43
